Airfield :
LOGIN :

Register | Disclaimer

   EN    FR    IT 

 










Legend :    VFR   Marginal VFR   IFR   Intensive IFR   Very Intensive IFR
Visi :
Ceiling :
>= 8 km
>= 3000ft
5 to 8 km
1000 to 3000 ft
1500m to 5 km
500 to 1000 ft
800 to 1500m
200 to 500 ft
< 800m
< 200 ft
Symbols :   Thunderstorms  Fog  Heavy snow  Heavy precipitations  Wind > 20 kt
SIGMETs :     Misc.  Thunderstorms  Icing  Turbulence  Mountain Waves  Volcanic Ashes






- Airport Elevation : 1036 ft
- IATA code : ERF


EDDE - Erfurt

CURRENT METAR :
  • 010320Z VRB02KT 0800 R10/P2000N FG OVC001 02/02 Q1034

EXPIRED METARs :
  • 010250Z 15003KT 110V180 0300 R10/1600U FG OVC001 02/02 Q1034
  • 010220Z 10004KT 060V140 0200 R10/1300U FG VV/// 02/02 Q1034
  • 010150Z 11004KT 060V150 0200 R10/1300N FG VV/// 02/02 Q1034
  • 010120Z VRB02KT 0200 R10/1400U FG VV/// 02/02 Q1034
  • 010050Z 09004KT 0200 R10/1200U FG VV/// 03/03 Q1034

TAF TAF EDDE
Valid from the 01 at 00:00 until the 02 at 00:00 UTC


282300Z 0100/0124 06005KT 0100 FG VV001
TEMPO 0100/0109 0900 FG BKN004
BECMG 0108/0111 4000 BR BKN004
BECMG 0111/0114 CAVOK
BECMG 0120/0124 0500 FG BKN002



MET'MAP, your aeronautical weather chart ! - Copyright ORBIFLY December 2007 - Disclaimer

ORBIFLY MET'MAP TEAM :

Programming & Development : Alexandra Zaïnal
Concept & original design : Baudouin d'Aumeries
Assistance for programming : Marc-Olivier Méhu
Technical & hardware support : Manuel Goepfert

Contact : metmap@orbifly.com




SOURCES & CREDITS :

   NOAA